createdAt,value
2023-02-07T00:06:58.372Z,4.4
2023-02-07T00:22:00.352Z,2.2
2023-02-07T00:37:02.186Z,2.2
2023-02-07T00:52:04.127Z,0
2023-02-07T01:07:06.099Z,0
2023-02-07T01:22:08.049Z,0
2023-02-07T01:37:10.039Z,0
2023-02-07T01:52:12.002Z,0
2023-02-07T02:07:13.950Z,2.2
2023-02-07T02:22:15.895Z,2.2
2023-02-07T02:37:17.928Z,2.2
2023-02-07T02:52:19.836Z,2.2
2023-02-07T03:07:21.745Z,2.2
2023-02-07T03:22:23.679Z,0
2023-02-07T03:37:25.757Z,0
2023-02-07T03:52:27.672Z,0
2023-02-07T04:07:29.597Z,0
2023-02-07T04:22:31.505Z,0
2023-02-07T04:37:33.407Z,0
2023-02-07T04:52:35.473Z,0
2023-02-07T05:07:37.418Z,0
2023-02-07T05:22:39.366Z,0
2023-02-07T05:37:41.363Z,0
2023-02-07T05:52:43.298Z,0
2023-02-07T06:07:45.282Z,0
2023-02-07T06:22:47.199Z,0
2023-02-07T06:37:49.159Z,0
2023-02-07T06:52:51.062Z,0
2023-02-07T07:07:53.032Z,0
2023-02-07T07:22:55.069Z,0
2023-02-07T07:37:56.948Z,0
2023-02-07T07:52:58.960Z,0
2023-02-07T08:08:00.899Z,0
2023-02-07T08:23:02.837Z,0
2023-02-07T08:38:04.740Z,0
2023-02-07T08:53:06.663Z,0
2023-02-07T09:08:08.576Z,0
2023-02-07T09:23:10.502Z,0
2023-02-07T09:38:12.429Z,0
2023-02-07T09:53:15.685Z,0
2023-02-07T10:08:18.450Z,0
2023-02-07T10:23:20.334Z,0
2023-02-07T10:38:22.292Z,0
2023-02-07T10:53:24.288Z,0
2023-02-07T11:08:26.255Z,0
2023-02-07T11:23:28.344Z,0
2023-02-07T11:38:30.277Z,0
2023-02-07T11:53:32.194Z,0
2023-02-07T12:08:34.085Z,0
2023-02-07T12:23:42.347Z,0
2023-02-07T12:38:44.850Z,0
2023-02-07T12:53:46.773Z,0
2023-02-07T13:08:48.726Z,0
2023-02-07T13:23:51.178Z,0
2023-02-07T13:38:53.126Z,0
2023-02-07T13:53:55.274Z,0
2023-02-07T14:08:57.441Z,0
2023-02-07T14:23:59.364Z,0
2023-02-07T14:39:01.307Z,0
2023-02-07T14:54:03.340Z,0
2023-02-07T15:09:05.359Z,0
2023-02-07T15:24:07.379Z,0
2023-02-07T15:39:09.318Z,2.2
2023-02-07T15:54:11.360Z,4.4
2023-02-07T16:09:13.281Z,4.4
2023-02-07T16:24:15.193Z,6.6
2023-02-07T16:39:17.127Z,8.8
2023-02-07T16:54:19.143Z,11
2023-02-07T17:09:21.091Z,8.8
2023-02-07T17:24:22.989Z,13.2
2023-02-07T17:39:24.904Z,13.2
2023-02-07T17:54:26.838Z,19.8
2023-02-07T18:09:28.771Z,17.6
2023-02-07T18:24:30.660Z,17.6
2023-02-07T18:39:32.609Z,15.4
2023-02-07T18:54:34.763Z,13.2
2023-02-07T19:09:36.786Z,15.4
2023-02-07T19:24:38.946Z,17.6
2023-02-07T19:39:40.890Z,17.6
2023-02-07T19:54:42.791Z,15.4
2023-02-07T20:09:44.755Z,17.6
2023-02-07T20:24:46.706Z,15.4
2023-02-07T20:39:48.705Z,17.6
2023-02-07T20:54:51.365Z,15.4
2023-02-07T21:09:53.776Z,13.2
2023-02-07T21:24:55.934Z,11
2023-02-07T21:39:57.833Z,13.2
2023-02-07T21:54:59.764Z,11
2023-02-07T22:10:01.773Z,11
2023-02-07T22:25:03.697Z,11
2023-02-07T22:40:05.609Z,8.8
2023-02-07T22:55:07.576Z,6.6
2023-02-07T23:10:09.453Z,2.2
2023-02-07T23:25:11.557Z,2.2
2023-02-07T23:40:13.534Z,4.4
2023-02-07T23:55:15.554Z,4.4
